createdAt,value
2023-03-18T00:00:20.240Z,9.34
2023-03-18T00:01:20.393Z,9.33
2023-03-18T00:02:20.568Z,9.31
2023-03-18T00:03:20.779Z,9.30
2023-03-18T00:04:20.936Z,9.30
2023-03-18T00:05:21.078Z,9.30
2023-03-18T00:06:21.245Z,9.27
2023-03-18T00:07:21.404Z,9.29
2023-03-18T00:08:21.604Z,9.27
2023-03-18T00:09:21.764Z,9.27
2023-03-18T00:10:21.948Z,9.26
2023-03-18T00:11:22.117Z,9.24
2023-03-18T00:12:22.264Z,9.24
2023-03-18T00:13:22.433Z,9.24
2023-03-18T00:14:22.642Z,9.24
2023-03-18T00:15:22.788Z,9.22
2023-03-18T00:16:23.035Z,9.22
2023-03-18T00:17:23.061Z,9.22
2023-03-18T00:18:23.236Z,9.24
2023-03-18T00:19:23.383Z,9.26
2023-03-18T00:20:23.544Z,9.22
2023-03-18T00:21:23.698Z,9.21
2023-03-18T00:22:23.847Z,9.21
2023-03-18T00:23:23.994Z,9.18
2023-03-18T00:24:24.164Z,9.18
2023-03-18T00:25:24.326Z,9.16
2023-03-18T00:26:24.488Z,9.15
2023-03-18T00:27:24.646Z,9.13
2023-03-18T00:28:24.843Z,9.12
2023-03-18T00:29:25.002Z,9.13
2023-03-18T00:30:25.182Z,9.13
2023-03-18T00:31:25.330Z,9.11
2023-03-18T00:32:25.479Z,9.11
2023-03-18T00:33:25.653Z,9.09
2023-03-18T00:34:25.805Z,9.08
2023-03-18T00:35:26.036Z,9.11
2023-03-18T00:36:26.099Z,9.08
2023-03-18T00:37:26.238Z,9.11
2023-03-18T00:38:26.406Z,9.09
2023-03-18T00:39:26.624Z,9.09
2023-03-18T00:40:26.773Z,9.08
2023-03-18T00:41:26.923Z,9.05
2023-03-18T00:42:27.093Z,9.03
2023-03-18T00:43:27.230Z,9.02
2023-03-18T00:44:27.398Z,9.00
2023-03-18T00:45:27.546Z,8.99
2023-03-18T00:46:27.730Z,8.96
2023-03-18T00:47:27.870Z,8.96
2023-03-18T00:48:28.055Z,8.96
2023-03-18T00:49:28.200Z,8.96
2023-03-18T00:50:28.364Z,8.93
2023-03-18T00:51:28.520Z,8.92
2023-03-18T00:52:31.057Z,8.90
2023-03-18T00:53:28.836Z,8.89
2023-03-18T00:54:29.000Z,8.89
2023-03-18T00:55:29.152Z,8.90
2023-03-18T00:56:29.312Z,8.89
2023-03-18T00:57:29.468Z,8.89
2023-03-18T00:58:29.634Z,8.89
2023-03-18T00:59:29.782Z,8.89
2023-03-18T01:00:30.281Z,8.89
2023-03-18T01:01:30.073Z,8.89
2023-03-18T01:02:30.301Z,8.87
2023-03-18T01:03:30.392Z,8.84
2023-03-18T01:04:30.577Z,8.84
2023-03-18T01:05:30.752Z,8.82
2023-03-18T01:06:30.935Z,8.81
2023-03-18T01:07:31.098Z,8.81
2023-03-18T01:08:31.264Z,8.81
2023-03-18T01:09:31.422Z,8.81
2023-03-18T01:10:31.806Z,8.79
2023-03-18T01:11:31.784Z,8.79
2023-03-18T01:12:31.944Z,8.78
2023-03-18T01:13:32.131Z,8.77
2023-03-18T01:14:32.288Z,8.77
2023-03-18T01:15:32.438Z,8.75
2023-03-18T01:16:33.596Z,8.75
2023-03-18T01:17:32.761Z,8.72
2023-03-18T01:18:32.926Z,8.74
2023-03-18T01:19:33.105Z,8.72
2023-03-18T01:20:33.650Z,8.72
2023-03-18T01:21:33.401Z,8.74
2023-03-18T01:22:33.575Z,8.72
2023-03-18T01:23:33.723Z,8.72
2023-03-18T01:24:33.898Z,8.72
2023-03-18T01:25:34.029Z,8.71
2023-03-18T01:26:34.202Z,8.72
2023-03-18T01:27:34.358Z,8.72
2023-03-18T01:28:34.534Z,8.72
2023-03-18T01:29:34.675Z,8.71
2023-03-18T01:30:34.830Z,8.71
2023-03-18T01:31:35.051Z,8.69
2023-03-18T01:32:35.110Z,8.72
2023-03-18T01:33:35.278Z,8.72
2023-03-18T01:34:35.457Z,8.71
2023-03-18T01:35:35.658Z,8.72
2023-03-18T01:36:35.820Z,8.72
2023-03-18T01:37:36.053Z,8.74
2023-03-18T01:38:36.133Z,8.72
2023-03-18T01:39:36.269Z,8.69
2023-03-18T01:40:36.438Z,8.69
2023-03-18T01:41:36.652Z,8.69
2023-03-18T01:42:36.787Z,8.69
2023-03-18T01:43:36.940Z,8.68
2023-03-18T01:44:37.106Z,8.68
2023-03-18T01:45:37.278Z,8.66
2023-03-18T01:46:37.463Z,8.68
2023-03-18T01:47:37.603Z,8.68
2023-03-18T01:48:37.768Z,8.68
2023-03-18T01:49:37.946Z,8.66
2023-03-18T01:50:38.105Z,8.69
2023-03-18T01:51:38.257Z,8.69
2023-03-18T01:52:38.410Z,8.71
2023-03-18T01:53:38.563Z,8.72
2023-03-18T01:54:38.738Z,8.71
2023-03-18T01:55:38.898Z,8.71
2023-03-18T01:56:39.069Z,8.69
2023-03-18T01:57:39.239Z,8.69
2023-03-18T01:58:39.442Z,8.69
2023-03-18T01:59:39.609Z,8.72
2023-03-18T02:00:39.810Z,8.71
2023-03-18T02:01:39.957Z,8.69
2023-03-18T02:02:40.133Z,8.71
2023-03-18T02:03:40.346Z,8.71
2023-03-18T02:04:40.434Z,8.71
2023-03-18T02:05:40.620Z,8.69
2023-03-18T02:06:40.790Z,8.69
2023-03-18T02:07:40.948Z,8.68
2023-03-18T02:08:41.139Z,8.66
2023-03-18T02:09:41.298Z,8.66
2023-03-18T02:10:41.459Z,8.68
2023-03-18T02:11:41.620Z,8.69
2023-03-18T02:12:41.770Z,8.71
2023-03-18T02:13:41.949Z,8.71
2023-03-18T02:14:42.121Z,8.69
2023-03-18T02:15:42.272Z,8.68
2023-03-18T02:16:42.527Z,8.68
2023-03-18T02:17:42.583Z,8.68
2023-03-18T02:18:42.769Z,8.66
2023-03-18T02:19:42.952Z,8.66
2023-03-18T02:20:43.126Z,8.64
2023-03-18T02:21:43.271Z,8.64
2023-03-18T02:22:43.444Z,8.66
2023-03-18T02:23:43.605Z,8.68
2023-03-18T02:24:43.791Z,8.69
2023-03-18T02:25:43.931Z,8.69
2023-03-18T02:26:44.077Z,8.71
2023-03-18T02:27:44.227Z,8.71
2023-03-18T02:28:44.405Z,8.71
2023-03-18T02:29:44.572Z,8.72
2023-03-18T02:30:44.805Z,8.74
2023-03-18T02:31:44.950Z,8.75
2023-03-18T02:32:45.159Z,8.72
2023-03-18T02:33:45.324Z,8.74
2023-03-18T02:34:45.486Z,8.74
2023-03-18T02:35:45.650Z,8.71
2023-03-18T02:36:45.796Z,8.72
2023-03-18T02:37:45.963Z,8.72
2023-03-18T02:38:46.139Z,8.74
2023-03-18T02:39:46.276Z,8.72
2023-03-18T02:40:46.464Z,8.74
2023-03-18T02:41:46.614Z,8.75
2023-03-18T02:42:46.804Z,8.75
2023-03-18T02:43:46.963Z,8.75
2023-03-18T02:44:47.146Z,8.75
2023-03-18T02:45:47.354Z,8.77
2023-03-18T02:46:47.488Z,8.77
2023-03-18T02:47:47.648Z,8.81
2023-03-18T02:48:47.845Z,8.81
2023-03-18T02:49:48.012Z,8.81
2023-03-18T02:50:48.184Z,8.84
2023-03-18T02:51:48.355Z,8.86
2023-03-18T02:52:48.526Z,8.82
2023-03-18T02:53:48.706Z,8.84
2023-03-18T02:54:48.867Z,8.84
2023-03-18T02:55:49.014Z,8.84
2023-03-18T02:56:49.181Z,8.82
2023-03-18T02:57:49.336Z,8.84
2023-03-18T02:58:51.650Z,8.84
2023-03-18T02:59:49.653Z,8.84
2023-03-18T03:00:49.811Z,8.82
2023-03-18T03:01:50.006Z,8.84
2023-03-18T03:02:50.192Z,8.84
2023-03-18T03:03:50.265Z,8.82
2023-03-18T03:04:50.433Z,8.81
2023-03-18T03:05:50.574Z,8.79
2023-03-18T03:06:50.730Z,8.77
2023-03-18T03:07:50.885Z,8.79
2023-03-18T03:08:51.065Z,8.78
2023-03-18T03:09:51.215Z,8.79
2023-03-18T03:10:51.378Z,8.78
2023-03-18T03:11:51.572Z,8.77
2023-03-18T03:12:51.742Z,8.74
2023-03-18T03:13:51.928Z,8.77
2023-03-18T03:14:52.074Z,8.78
2023-03-18T03:15:52.316Z,8.75
2023-03-18T03:16:52.392Z,8.77
2023-03-18T03:17:52.497Z,8.75
2023-03-18T03:18:52.670Z,8.77
2023-03-18T03:19:52.826Z,8.75
2023-03-18T03:20:52.981Z,8.78
2023-03-18T03:21:53.166Z,8.78
2023-03-18T03:22:53.333Z,8.81
2023-03-18T03:23:53.529Z,8.82
2023-03-18T03:24:57.147Z,8.84
2023-03-18T03:25:53.850Z,8.82
2023-03-18T03:26:54.020Z,8.84
2023-03-18T03:27:54.208Z,8.86
2023-03-18T03:28:54.368Z,8.84
2023-03-18T03:29:54.535Z,8.82
2023-03-18T03:30:54.716Z,8.84
2023-03-18T03:31:54.884Z,8.87
2023-03-18T03:32:55.091Z,8.87
2023-03-18T03:33:55.250Z,8.90
2023-03-18T03:34:55.400Z,8.90
2023-03-18T03:35:55.594Z,8.92
2023-03-18T03:36:55.738Z,8.92
2023-03-18T03:37:55.911Z,8.92
2023-03-18T03:38:56.079Z,8.90
2023-03-18T03:39:56.242Z,8.90
2023-03-18T03:40:56.419Z,8.92
2023-03-18T03:41:56.600Z,8.92
2023-03-18T03:42:56.770Z,8.90
2023-03-18T03:43:56.969Z,8.90
2023-03-18T03:44:57.120Z,8.86
2023-03-18T03:45:57.262Z,8.87
2023-03-18T03:46:57.410Z,8.89
2023-03-18T03:47:57.574Z,8.90
2023-03-18T03:48:57.728Z,8.92
2023-03-18T03:49:57.881Z,8.92
2023-03-18T03:51:05.045Z,8.90
2023-03-18T03:51:58.177Z,8.90
2023-03-18T03:52:58.335Z,8.90
2023-03-18T03:53:58.490Z,8.90
2023-03-18T03:54:58.636Z,8.92
2023-03-18T03:55:59.360Z,8.95
2023-03-18T03:56:59.093Z,8.93
2023-03-18T03:57:59.143Z,8.93
2023-03-18T03:58:59.292Z,8.93
2023-03-18T03:59:59.438Z,8.95
2023-03-18T04:00:59.572Z,8.95
2023-03-18T04:01:59.719Z,8.95
2023-03-18T04:02:59.899Z,8.95
2023-03-18T04:04:00.117Z,8.95
2023-03-18T04:05:00.223Z,8.97
2023-03-18T04:06:00.350Z,8.99
2023-03-18T04:07:00.481Z,8.99
2023-03-18T04:08:00.647Z,9.02
2023-03-18T04:09:00.800Z,8.99
2023-03-18T04:10:00.949Z,8.99
2023-03-18T04:11:01.097Z,8.99
2023-03-18T04:12:01.253Z,8.99
2023-03-18T04:13:01.447Z,9.00
2023-03-18T04:14:01.608Z,8.97
2023-03-18T04:15:05.612Z,8.97
2023-03-18T04:16:02.053Z,8.97
2023-03-18T04:17:02.123Z,8.99
2023-03-18T04:18:02.288Z,9.00
2023-03-18T04:19:02.460Z,9.02
2023-03-18T04:20:02.629Z,9.03
2023-03-18T04:21:02.779Z,9.05
2023-03-18T04:22:02.953Z,9.03
2023-03-18T04:23:03.104Z,9.03
2023-03-18T04:24:03.269Z,9.09
2023-03-18T04:25:03.429Z,9.15
2023-03-18T04:26:03.605Z,9.16
2023-03-18T04:27:03.757Z,9.19
2023-03-18T04:28:03.932Z,9.19
2023-03-18T04:29:04.090Z,9.18
2023-03-18T04:30:04.239Z,9.18
2023-03-18T04:31:04.471Z,9.15
2023-03-18T04:32:04.543Z,9.12
2023-03-18T04:33:04.750Z,9.12
2023-03-18T04:34:04.874Z,9.12
2023-03-18T04:35:05.060Z,9.12
2023-03-18T04:36:05.245Z,9.13
2023-03-18T04:37:05.322Z,9.11
2023-03-18T04:38:05.509Z,9.09
2023-03-18T04:39:05.663Z,9.09
2023-03-18T04:40:05.823Z,9.09
2023-03-18T04:41:05.987Z,9.08
2023-03-18T04:42:06.143Z,9.08
2023-03-18T04:43:06.292Z,9.05
2023-03-18T04:44:06.471Z,9.03
2023-03-18T04:45:06.583Z,9.02
2023-03-18T04:46:06.719Z,9.02
2023-03-18T04:47:06.898Z,9.00
2023-03-18T04:48:07.032Z,8.99
2023-03-18T04:49:07.174Z,8.96
2023-03-18T04:50:07.343Z,8.96
2023-03-18T04:51:07.488Z,8.93
2023-03-18T04:52:07.654Z,8.92
2023-03-18T04:53:07.798Z,8.92
2023-03-18T04:54:07.969Z,8.89
2023-03-18T04:55:08.175Z,8.86
2023-03-18T04:56:08.295Z,8.82
2023-03-18T04:57:08.445Z,8.84
2023-03-18T04:58:08.622Z,8.82
2023-03-18T04:59:08.775Z,8.82
2023-03-18T05:00:11.370Z,8.81
2023-03-18T05:01:09.077Z,8.79
2023-03-18T05:02:09.256Z,8.78
2023-03-18T05:03:09.409Z,8.77
2023-03-18T05:04:09.603Z,8.78
2023-03-18T05:05:09.745Z,8.77
2023-03-18T05:06:09.933Z,8.77
2023-03-18T05:07:10.084Z,8.74
2023-03-18T05:08:10.263Z,8.75
2023-03-18T05:09:10.408Z,8.77
2023-03-18T05:10:10.576Z,8.77
2023-03-18T05:11:10.734Z,8.75
2023-03-18T05:12:10.875Z,8.71
2023-03-18T05:13:11.062Z,8.69
2023-03-18T05:14:11.230Z,8.69
2023-03-18T05:15:12.141Z,8.66
2023-03-18T05:16:11.564Z,8.66
2023-03-18T05:17:11.702Z,8.64
2023-03-18T05:18:11.865Z,8.64
2023-03-18T05:19:12.852Z,8.63
2023-03-18T05:20:12.249Z,8.60
2023-03-18T05:21:12.392Z,8.60
2023-03-18T05:22:12.549Z,8.60
2023-03-18T05:23:12.700Z,8.60
2023-03-18T05:24:12.881Z,8.60
2023-03-18T05:25:13.025Z,8.60
2023-03-18T05:26:13.177Z,8.59
2023-03-18T05:27:13.379Z,8.57
2023-03-18T05:28:13.529Z,8.57
2023-03-18T05:29:14.859Z,8.54
2023-03-18T05:30:13.787Z,8.54
2023-03-18T05:31:13.952Z,8.53
2023-03-18T05:32:14.098Z,8.52
2023-03-18T05:33:14.251Z,8.53
2023-03-18T05:34:14.439Z,8.53
2023-03-18T05:35:14.583Z,8.53
2023-03-18T05:36:14.734Z,8.54
2023-03-18T05:37:14.896Z,8.54
2023-03-18T05:38:15.086Z,8.53
2023-03-18T05:39:15.256Z,8.52
2023-03-18T05:40:15.414Z,8.52
2023-03-18T05:41:15.593Z,8.53
2023-03-18T05:42:15.759Z,8.53
2023-03-18T05:43:15.936Z,8.52
2023-03-18T05:44:16.099Z,8.53
2023-03-18T05:45:16.285Z,8.52
2023-03-18T05:46:16.487Z,8.52
2023-03-18T05:47:16.566Z,8.54
2023-03-18T05:48:16.717Z,8.56
2023-03-18T05:49:16.885Z,8.56
2023-03-18T05:50:17.046Z,8.56
2023-03-18T05:51:17.189Z,8.53
2023-03-18T05:52:17.357Z,8.56
2023-03-18T05:53:17.504Z,8.57
2023-03-18T05:54:17.679Z,8.59
2023-03-18T05:55:17.829Z,8.59
2023-03-18T05:56:17.987Z,8.60
2023-03-18T05:57:18.124Z,8.61
2023-03-18T05:58:18.310Z,8.61
2023-03-18T05:59:18.480Z,8.61
2023-03-18T06:00:18.661Z,8.61
2023-03-18T06:01:18.823Z,8.63
2023-03-18T06:02:18.980Z,8.64
2023-03-18T06:03:19.149Z,8.68
2023-03-18T06:04:19.414Z,8.68
2023-03-18T06:05:19.550Z,8.71
2023-03-18T06:06:19.766Z,8.69
2023-03-18T06:07:19.806Z,8.69
2023-03-18T06:08:19.971Z,8.71
2023-03-18T06:09:20.140Z,8.72
2023-03-18T06:10:20.295Z,8.74
2023-03-18T06:11:20.471Z,8.74
2023-03-18T06:12:20.632Z,8.74
2023-03-18T06:13:20.775Z,8.74
2023-03-18T06:14:20.941Z,8.72
2023-03-18T06:15:21.100Z,8.75
2023-03-18T06:16:21.269Z,8.75
2023-03-18T06:17:21.399Z,8.75
2023-03-18T06:18:21.552Z,8.78
2023-03-18T06:19:21.752Z,8.78
2023-03-18T06:20:21.912Z,8.77
2023-03-18T06:21:22.058Z,8.78
2023-03-18T06:22:22.219Z,8.78
2023-03-18T06:23:22.365Z,8.81
2023-03-18T06:24:22.532Z,8.81
2023-03-18T06:25:22.679Z,8.78
2023-03-18T06:26:22.836Z,8.78
2023-03-18T06:27:22.982Z,8.78
2023-03-18T06:28:23.137Z,8.77
2023-03-18T06:29:23.311Z,8.75
2023-03-18T06:30:23.467Z,8.74
2023-03-18T06:31:23.707Z,8.75
2023-03-18T06:32:23.830Z,8.77
2023-03-18T06:33:23.969Z,8.75
2023-03-18T06:34:25.103Z,8.77
2023-03-18T06:35:24.246Z,8.78
2023-03-18T06:36:24.400Z,8.77
2023-03-18T06:37:24.552Z,8.78
2023-03-18T06:38:24.720Z,8.82
2023-03-18T06:39:24.882Z,8.81
2023-03-18T06:40:25.048Z,8.86
2023-03-18T06:41:25.187Z,8.87
2023-03-18T06:42:25.585Z,8.90
2023-03-18T06:43:25.496Z,8.84
2023-03-18T06:44:25.666Z,8.81
2023-03-18T06:45:25.855Z,8.81
2023-03-18T06:46:26.100Z,8.81
2023-03-18T06:47:26.110Z,8.79
2023-03-18T06:48:26.275Z,8.78
2023-03-18T06:49:26.428Z,8.78
2023-03-18T06:50:26.582Z,8.78
2023-03-18T06:51:26.711Z,8.81
2023-03-18T06:52:26.861Z,8.87
2023-03-18T06:53:27.009Z,8.89
2023-03-18T06:54:27.213Z,8.92
2023-03-18T06:55:27.341Z,8.97
2023-03-18T06:56:27.491Z,9.03
2023-03-18T06:57:27.643Z,9.05
2023-03-18T06:58:27.769Z,9.13
2023-03-18T06:59:27.919Z,9.22
2023-03-18T07:00:28.083Z,9.34
2023-03-18T07:01:28.221Z,9.44
2023-03-18T07:02:28.345Z,9.72
2023-03-18T07:03:28.488Z,9.85
2023-03-18T07:04:28.722Z,9.95
2023-03-18T07:05:28.758Z,10.24
2023-03-18T07:06:28.897Z,10.33
2023-03-18T07:07:29.067Z,10.28
2023-03-18T07:08:29.187Z,10.18
2023-03-18T07:09:29.354Z,10.21
2023-03-18T07:10:29.481Z,10.23
2023-03-18T07:11:29.626Z,10.23
2023-03-18T07:12:29.757Z,10.20
2023-03-18T07:13:29.896Z,10.20
2023-03-18T07:14:30.044Z,10.24
2023-03-18T07:15:30.183Z,10.39
2023-03-18T07:16:30.389Z,10.51
2023-03-18T07:17:30.408Z,10.57
2023-03-18T07:18:30.543Z,10.67
2023-03-18T07:19:30.700Z,10.71
2023-03-18T07:20:30.823Z,10.69
2023-03-18T07:21:30.972Z,10.84
2023-03-18T07:22:31.096Z,11.02
2023-03-18T07:23:31.241Z,11.27
2023-03-18T07:24:31.381Z,11.33
2023-03-18T07:25:31.732Z,11.20
2023-03-18T07:26:31.629Z,11.35
2023-03-18T07:27:31.777Z,11.45
2023-03-18T07:28:31.897Z,11.43
2023-03-18T07:29:32.075Z,11.18
2023-03-18T07:30:32.201Z,11.05
2023-03-18T07:31:32.379Z,10.98
2023-03-18T07:32:32.536Z,11.08
2023-03-18T07:33:32.661Z,11.26
2023-03-18T07:34:32.811Z,11.51
2023-03-18T07:35:33.159Z,11.67
2023-03-18T07:36:33.027Z,11.89
2023-03-18T07:37:33.171Z,12.17
2023-03-18T07:38:33.270Z,12.23
2023-03-18T07:39:33.430Z,12.54
2023-03-18T07:40:33.527Z,12.87
2023-03-18T07:41:35.444Z,12.99
2023-03-18T07:42:33.789Z,13.46
2023-03-18T07:43:33.917Z,13.55
2023-03-18T07:44:34.046Z,13.58
2023-03-18T07:45:34.313Z,13.46
2023-03-18T07:46:34.458Z,13.57
2023-03-18T07:47:34.485Z,13.70
2023-03-18T07:48:34.604Z,14.04
2023-03-18T07:49:34.722Z,13.71
2023-03-18T07:50:34.813Z,13.73
2023-03-18T07:51:34.919Z,13.80
2023-03-18T07:52:35.004Z,13.97
2023-03-18T07:53:35.098Z,13.91
2023-03-18T07:54:35.216Z,14.07
2023-03-18T07:55:35.348Z,14.28
2023-03-18T07:56:35.431Z,14.28
2023-03-18T07:57:35.527Z,13.87
2023-03-18T07:58:35.714Z,13.95
2023-03-18T07:59:35.741Z,14.49
2023-03-18T08:00:35.732Z,14.67
2023-03-18T08:01:35.825Z,14.67
2023-03-18T08:02:35.912Z,14.45
2023-03-18T08:03:36.099Z,14.40
2023-03-18T08:04:36.149Z,14.15
2023-03-18T08:05:36.244Z,13.95
2023-03-18T08:06:36.319Z,13.87
2023-03-18T08:07:36.424Z,13.94
2023-03-18T08:08:36.496Z,13.67
2023-03-18T08:09:36.596Z,13.45
2023-03-18T08:10:36.692Z,13.82
2023-03-18T08:11:37.026Z,14.36
2023-03-18T08:12:51.598Z,15.14
2023-03-18T08:13:37.933Z,15.62
2023-03-18T08:14:37.014Z,15.51
2023-03-18T08:15:37.097Z,15.60
2023-03-18T08:16:37.231Z,15.76
2023-03-18T08:17:37.298Z,15.52
2023-03-18T08:18:37.375Z,15.55
2023-03-18T08:19:37.511Z,15.33
2023-03-18T08:20:37.562Z,14.96
2023-03-18T08:21:37.653Z,15.17
2023-03-18T08:22:37.727Z,15.39
2023-03-18T08:23:37.825Z,15.63
2023-03-18T08:24:37.896Z,15.92
2023-03-18T08:25:37.968Z,16.50
2023-03-18T08:26:38.032Z,16.65
2023-03-18T08:27:38.113Z,16.97
2023-03-18T08:28:38.186Z,17.14
2023-03-18T08:29:38.268Z,17.02
2023-03-18T08:30:38.303Z,16.29
2023-03-18T08:31:38.413Z,16.49
2023-03-18T08:32:38.453Z,16.22
2023-03-18T08:33:38.419Z,16.00
2023-03-18T08:34:38.486Z,16.05
2023-03-18T08:35:38.627Z,16.40
2023-03-18T08:36:38.576Z,16.69
2023-03-18T08:37:38.652Z,16.28
2023-03-18T08:38:38.690Z,15.63
2023-03-18T08:39:38.770Z,15.23
2023-03-18T08:40:38.826Z,15.07
2023-03-18T08:41:38.903Z,14.87
2023-03-18T08:42:38.955Z,14.71
2023-03-18T08:43:39.250Z,14.96
2023-03-18T08:44:39.100Z,14.92
2023-03-18T08:45:39.210Z,14.82
2023-03-18T08:46:39.184Z,14.74
2023-03-18T08:47:39.244Z,14.56
2023-03-18T08:48:39.317Z,14.61
2023-03-18T08:49:39.459Z,14.51
2023-03-18T08:50:39.414Z,14.44
2023-03-18T08:51:39.493Z,14.13
2023-03-18T08:52:39.571Z,14.48
2023-03-18T08:53:39.673Z,14.81
2023-03-18T08:54:39.749Z,15.30
2023-03-18T08:55:39.872Z,15.48
2023-03-18T08:56:39.923Z,15.76
2023-03-18T08:57:40.030Z,15.81
2023-03-18T08:58:40.098Z,15.90
2023-03-18T08:59:40.199Z,16.32
2023-03-18T09:00:40.277Z,16.06
2023-03-18T09:01:40.423Z,15.83
2023-03-18T09:02:40.359Z,15.66
2023-03-18T09:03:40.548Z,15.92
2023-03-18T09:04:40.586Z,16.06
2023-03-18T09:05:40.666Z,16.12
2023-03-18T09:06:40.726Z,16.03
2023-03-18T09:07:40.821Z,15.92
2023-03-18T09:08:40.891Z,16.02
2023-03-18T09:09:43.951Z,16.12
2023-03-18T09:10:41.089Z,16.00
2023-03-18T09:11:41.169Z,16.26
2023-03-18T09:12:41.238Z,16.36
2023-03-18T09:13:41.314Z,16.57
2023-03-18T09:14:41.389Z,16.97
2023-03-18T09:15:41.459Z,17.12
2023-03-18T09:16:41.611Z,16.61
2023-03-18T09:17:56.647Z,16.57
2023-03-18T09:18:44.845Z,16.69
2023-03-18T09:19:41.636Z,16.92
2023-03-18T09:20:41.760Z,17.38
2023-03-18T09:21:41.807Z,17.72
2023-03-18T09:22:41.886Z,17.98
2023-03-18T09:23:41.995Z,17.94
2023-03-18T09:24:42.073Z,17.88
2023-03-18T09:25:42.130Z,18.15
2023-03-18T09:26:42.178Z,18.28
2023-03-18T09:27:42.235Z,18.45
2023-03-18T09:28:42.282Z,18.64
2023-03-18T09:29:42.381Z,18.64
2023-03-18T09:30:42.438Z,18.74
2023-03-18T09:31:42.501Z,19.01
2023-03-18T09:32:42.564Z,18.57
2023-03-18T09:33:42.652Z,18.15
2023-03-18T09:34:42.698Z,17.94
2023-03-18T09:35:42.813Z,17.79
2023-03-18T09:36:42.744Z,17.50
2023-03-18T09:37:42.797Z,17.78
2023-03-18T09:38:42.835Z,18.03
2023-03-18T09:39:42.902Z,17.87
2023-03-18T09:40:42.944Z,18.03
2023-03-18T09:41:42.991Z,18.28
2023-03-18T09:42:43.051Z,18.71
2023-03-18T09:43:43.200Z,19.05
2023-03-18T09:44:43.160Z,19.11
2023-03-18T09:45:43.247Z,19.48
2023-03-18T09:46:43.386Z,19.75
2023-03-18T09:47:43.300Z,20.14
2023-03-18T09:48:43.231Z,20.18
2023-03-18T09:49:43.293Z,20.30
2023-03-18T09:50:43.331Z,20.19
2023-03-18T09:51:50.376Z,20.10
2023-03-18T09:52:43.441Z,19.55
2023-03-18T09:53:46.163Z,20.07
2023-03-18T09:54:44.364Z,20.03
2023-03-18T09:55:43.417Z,20.17
2023-03-18T09:56:43.443Z,20.40
2023-03-18T09:57:43.490Z,20.11
2023-03-18T09:58:43.527Z,19.62
2023-03-18T09:59:43.564Z,20.07
2023-03-18T10:00:43.614Z,20.07
2023-03-18T10:01:43.664Z,20.24
2023-03-18T10:02:43.603Z,20.55
2023-03-18T10:03:43.697Z,20.29
2023-03-18T10:04:43.664Z,20.58
2023-03-18T10:05:43.688Z,20.42
2023-03-18T10:06:43.712Z,20.74
2023-03-18T10:07:43.740Z,21.51
2023-03-18T10:08:43.762Z,22.14
2023-03-18T10:09:43.785Z,22.23
2023-03-18T10:10:43.811Z,22.37
2023-03-18T10:11:43.838Z,22.30
2023-03-18T10:12:43.867Z,22.03
2023-03-18T10:13:43.877Z,21.74
2023-03-18T10:14:43.934Z,21.28
2023-03-18T10:15:43.848Z,21.20
2023-03-18T10:16:43.843Z,21.23
2023-03-18T10:17:43.845Z,21.30
2023-03-18T10:18:43.856Z,21.62
2023-03-18T10:19:43.843Z,21.94
2023-03-18T10:20:43.855Z,22.18
2023-03-18T10:21:43.860Z,21.91
2023-03-18T10:22:43.877Z,21.84
2023-03-18T10:23:43.878Z,21.72
2023-03-18T10:24:43.880Z,21.25
2023-03-18T10:25:43.898Z,20.92
2023-03-18T10:26:43.906Z,20.03
2023-03-18T10:27:43.901Z,19.34
2023-03-18T10:28:43.921Z,19.08
2023-03-18T10:29:43.925Z,19.04
2023-03-18T10:30:43.935Z,19.08
2023-03-18T10:31:43.959Z,19.62
2023-03-18T10:32:49.901Z,20.08
2023-03-18T10:33:44.937Z,20.73
2023-03-18T10:34:43.962Z,21.04
2023-03-18T10:35:43.999Z,21.28
2023-03-18T10:36:44.050Z,21.66
2023-03-18T10:37:45.010Z,21.65
2023-03-18T10:38:44.035Z,21.15
2023-03-18T10:39:44.072Z,20.85
2023-03-18T10:40:44.125Z,20.55
2023-03-18T10:41:44.161Z,20.75
2023-03-18T10:42:44.197Z,21.07
2023-03-18T10:43:44.205Z,21.19
2023-03-18T10:44:44.213Z,21.32
2023-03-18T10:45:44.229Z,21.54
2023-03-18T10:46:44.444Z,21.68
2023-03-18T10:47:44.267Z,21.88
2023-03-18T10:48:44.289Z,21.99
2023-03-18T10:49:44.294Z,22.10
2023-03-18T10:50:44.325Z,21.72
2023-03-18T10:51:44.327Z,21.58
2023-03-18T10:52:44.347Z,20.86
2023-03-18T10:53:44.354Z,20.56
2023-03-18T10:54:44.407Z,20.95
2023-03-18T10:55:44.326Z,21.56
2023-03-18T10:56:44.347Z,22.14
2023-03-18T10:57:44.347Z,22.33
2023-03-18T10:58:44.374Z,22.56
2023-03-18T10:59:44.393Z,22.53
2023-03-18T11:00:44.427Z,21.96
2023-03-18T11:01:44.524Z,22.10
2023-03-18T11:02:44.500Z,21.89
2023-03-18T11:03:44.386Z,22.31
2023-03-18T11:04:44.396Z,22.86
2023-03-18T11:05:44.412Z,22.76
2023-03-18T11:06:44.443Z,23.06
2023-03-18T11:07:44.450Z,23.33
2023-03-18T11:08:44.442Z,22.99
2023-03-18T11:09:44.427Z,21.78
2023-03-18T11:10:44.443Z,20.68
2023-03-18T11:11:44.442Z,19.97
2023-03-18T11:12:44.446Z,20.04
2023-03-18T11:13:44.481Z,20.21
2023-03-18T11:14:44.506Z,20.15
2023-03-18T11:15:44.590Z,20.14
2023-03-18T11:16:44.527Z,19.90
2023-03-18T11:17:44.527Z,19.59
2023-03-18T11:18:44.603Z,19.30
2023-03-18T11:19:44.588Z,19.05
2023-03-18T11:20:44.640Z,18.91
2023-03-18T11:21:44.592Z,19.04
2023-03-18T11:22:44.631Z,19.34
2023-03-18T11:23:44.669Z,19.60
2023-03-18T11:24:44.725Z,19.53
2023-03-18T11:25:44.777Z,19.57
2023-03-18T11:26:44.834Z,19.53
2023-03-18T11:27:44.859Z,19.66
2023-03-18T11:28:44.923Z,19.81
2023-03-18T11:29:46.723Z,19.87
2023-03-18T11:30:45.400Z,19.87
2023-03-18T11:31:45.107Z,19.77
2023-03-18T11:32:45.071Z,19.29
2023-03-18T11:33:45.112Z,19.12
2023-03-18T11:34:45.159Z,19.26
2023-03-18T11:35:45.274Z,19.41
2023-03-18T11:36:45.217Z,19.48
2023-03-18T11:37:45.258Z,19.55
2023-03-18T11:38:45.311Z,19.39
2023-03-18T11:39:45.346Z,19.37
2023-03-18T11:40:45.416Z,19.15
2023-03-18T11:41:45.459Z,18.89
2023-03-18T11:42:45.525Z,18.96
2023-03-18T11:43:45.569Z,19.01
2023-03-18T11:44:45.631Z,19.20
2023-03-18T11:45:45.688Z,19.42
2023-03-18T11:46:45.928Z,19.66
2023-03-18T11:47:45.774Z,19.82
2023-03-18T11:48:45.825Z,20.07
2023-03-18T11:49:45.873Z,20.58
2023-03-18T11:50:45.929Z,21.23
2023-03-18T11:51:45.981Z,21.43
2023-03-18T11:52:46.059Z,21.63
2023-03-18T11:53:46.108Z,21.62
2023-03-18T11:54:46.151Z,21.81
2023-03-18T11:55:46.215Z,21.99
2023-03-18T11:56:46.248Z,21.60
2023-03-18T11:57:46.285Z,21.51
2023-03-18T11:58:46.335Z,22.00
2023-03-18T11:59:46.359Z,22.49
2023-03-18T12:00:46.423Z,23.01
2023-03-18T12:01:46.466Z,23.16
2023-03-18T12:02:46.487Z,23.06
2023-03-18T12:03:46.495Z,23.07
2023-03-18T12:04:46.564Z,22.91
2023-03-18T12:05:46.552Z,22.84
2023-03-18T12:06:46.557Z,22.52
2023-03-18T12:07:46.613Z,22.41
2023-03-18T12:08:46.627Z,22.51
2023-03-18T12:09:46.603Z,22.71
2023-03-18T12:10:46.622Z,22.30
2023-03-18T12:11:46.637Z,21.65
2023-03-18T12:12:46.640Z,21.66
2023-03-18T12:13:46.628Z,22.06
2023-03-18T12:14:46.640Z,22.47
2023-03-18T12:15:46.680Z,22.78
2023-03-18T12:16:46.736Z,23.47
2023-03-18T12:17:46.631Z,23.77
2023-03-18T12:18:46.626Z,23.34
2023-03-18T12:19:46.634Z,23.28
2023-03-18T12:20:46.739Z,23.01
2023-03-18T12:21:46.621Z,22.84
2023-03-18T12:22:46.633Z,23.13
2023-03-18T12:23:48.496Z,22.81
2023-03-18T12:24:46.638Z,22.49
2023-03-18T12:25:46.648Z,22.36
2023-03-18T12:26:46.657Z,22.58
2023-03-18T12:27:46.666Z,22.99
2023-03-18T12:28:46.697Z,23.32
2023-03-18T12:29:46.757Z,23.71
2023-03-18T12:30:46.760Z,23.58
2023-03-18T12:31:46.871Z,23.76
2023-03-18T12:32:46.768Z,23.96
2023-03-18T12:33:46.778Z,24.03
2023-03-18T12:34:46.751Z,24.34
2023-03-18T12:35:46.787Z,24.56
2023-03-18T12:36:46.763Z,24.22
2023-03-18T12:37:46.700Z,24.43
2023-03-18T12:38:46.718Z,24.55
2023-03-18T12:39:46.722Z,24.71
2023-03-18T12:40:46.698Z,24.74
2023-03-18T12:41:46.703Z,24.85
2023-03-18T12:42:46.685Z,25.09
2023-03-18T12:43:46.699Z,24.61
2023-03-18T12:44:46.700Z,24.47
2023-03-18T12:45:46.737Z,23.51
2023-03-18T12:46:46.687Z,23.04
2023-03-18T12:47:46.693Z,22.49
2023-03-18T12:48:46.664Z,22.12
2023-03-18T12:49:46.632Z,22.49
2023-03-18T12:50:46.636Z,23.28
2023-03-18T12:51:46.618Z,23.82
2023-03-18T12:52:46.605Z,24.00
2023-03-18T12:53:46.622Z,24.34
2023-03-18T12:54:46.621Z,24.51
2023-03-18T12:55:46.621Z,24.40
2023-03-18T12:56:46.614Z,24.41
2023-03-18T12:57:46.601Z,24.14
2023-03-18T12:58:46.606Z,24.38
2023-03-18T12:59:46.616Z,24.43
2023-03-18T13:00:46.730Z,23.62
2023-03-18T13:01:46.562Z,23.89
2023-03-18T13:02:46.570Z,24.11
2023-03-18T13:03:46.545Z,24.47
2023-03-18T13:04:46.541Z,24.62
2023-03-18T13:05:46.566Z,24.14
2023-03-18T13:06:46.555Z,23.99
2023-03-18T13:07:46.545Z,23.76